createdAt,value
2023-02-12T00:00:21.667Z,60.72
2023-02-12T00:04:26.684Z,72.95
2023-02-12T00:08:30.191Z,66.53
2023-02-12T00:12:33.879Z,122.90
2023-02-12T00:16:37.624Z,90.53
2023-02-12T00:20:42.605Z,65.07
2023-02-12T00:24:46.111Z,66.28
2023-02-12T00:28:49.928Z,73.35
2023-02-12T00:32:56.922Z,68.68
2023-02-12T00:37:02.120Z,61.85
2023-02-12T00:41:09.646Z,112.97
2023-02-12T00:45:22.700Z,71.43
2023-02-12T00:49:26.741Z,65.00
2023-02-12T00:53:32.868Z,60.95
2023-02-12T00:57:36.654Z,67.15
2023-02-12T01:01:40.472Z,71.32
2023-02-12T01:05:46.305Z,64.63
2023-02-12T01:09:52.669Z,105.43
2023-02-12T01:13:58.008Z,99.18
2023-02-12T01:18:02.553Z,75.63
2023-02-12T01:22:09.641Z,132.10
2023-02-12T01:26:18.513Z,72.93
2023-02-12T01:30:24.417Z,69.13
2023-02-12T01:34:29.852Z,78.43
2023-02-12T01:38:39.886Z,70.30
2023-02-12T01:42:51.108Z,62.92
2023-02-12T01:47:06.037Z,82.15
2023-02-12T01:51:20.443Z,66.30
2023-02-12T01:55:28.362Z,94.10
2023-02-12T01:59:37.862Z,110.95
2023-02-12T02:03:46.053Z,86.68
2023-02-12T02:07:53.147Z,82.93
2023-02-12T02:12:15.556Z,102.13
2023-02-12T02:16:24.630Z,70.30
2023-02-12T02:20:50.957Z,125.15
2023-02-12T02:25:25.790Z,72.30
2023-02-12T02:29:49.692Z,68.10
2023-02-12T02:33:58.369Z,66.25
2023-02-12T02:38:13.359Z,68.68
2023-02-12T02:42:19.412Z,64.72
2023-02-12T02:46:28.217Z,64.85
2023-02-12T02:50:36.248Z,119.05
2023-02-12T02:54:51.379Z,74.75
2023-02-12T02:59:06.380Z,113.38
2023-02-12T03:03:17.471Z,103.38
2023-02-12T03:07:27.505Z,71.07
2023-02-12T03:11:33.479Z,64.07
2023-02-12T03:15:42.935Z,63.90
2023-02-12T03:19:52.320Z,86.22
2023-02-12T03:24:03.973Z,79.28
2023-02-12T03:28:13.689Z,59.63
2023-02-12T03:32:26.022Z,61.58
2023-02-12T03:36:36.293Z,109.38
2023-02-12T03:40:43.772Z,78.55
2023-02-12T03:44:54.441Z,66.13
2023-02-12T03:49:03.151Z,128.63
2023-02-12T03:53:17.845Z,64.07
2023-02-12T03:57:31.773Z,60.03
2023-02-12T04:01:39.402Z,71.15
2023-02-12T04:05:46.778Z,66.55
2023-02-12T04:09:53.613Z,88.05
2023-02-12T04:14:10.788Z,61.65
2023-02-12T04:18:18.057Z,67.50
2023-02-12T04:22:31.576Z,56.83
2023-02-12T04:26:39.415Z,57.40
2023-02-12T04:30:47.894Z,96.68
2023-02-12T04:34:55.926Z,58.30
2023-02-12T04:39:05.728Z,63.83
2023-02-12T04:43:12.352Z,55.72
2023-02-12T04:47:19.402Z,71.13
2023-02-12T04:51:23.055Z,57.95
2023-02-12T04:55:29.842Z,90.47
2023-02-12T04:59:34.666Z,59.25
2023-02-12T05:03:43.002Z,60.83
2023-02-12T05:07:47.005Z,61.92
2023-02-12T05:11:59.993Z,52.15
2023-02-12T05:16:18.371Z,65.00
2023-02-12T05:20:26.890Z,51.80
2023-02-12T05:24:31.421Z,55.78
2023-02-12T05:28:41.916Z,74.00
2023-02-12T05:36:53.789Z,56.78
2023-02-12T05:41:03.363Z,52.42
2023-02-12T05:45:08.646Z,53.28
2023-02-12T05:49:12.814Z,89.25
2023-02-12T05:53:18.311Z,57.90
2023-02-12T05:57:23.506Z,58.33
2023-02-12T06:01:29.411Z,63.30
2023-02-12T06:05:35.134Z,77.00
2023-02-12T06:09:41.027Z,71.10
2023-02-12T06:13:44.724Z,56.15
2023-02-12T06:17:51.499Z,53.13
2023-02-12T06:21:55.226Z,79.60
2023-02-12T06:26:03.677Z,89.13
2023-02-12T06:30:08.619Z,61.75
2023-02-12T06:34:16.712Z,54.72
2023-02-12T06:38:20.976Z,56.83
2023-02-12T06:46:30.029Z,57.17
2023-02-12T06:54:38.340Z,55.67
2023-02-12T06:58:46.123Z,55.88
2023-02-12T07:02:57.270Z,53.58
2023-02-12T07:07:01.118Z,54.83
2023-02-12T07:11:05.062Z,79.13
2023-02-12T07:15:11.328Z,55.00
2023-02-12T07:19:17.624Z,52.45
2023-02-12T07:23:24.800Z,81.40
2023-02-12T07:27:31.359Z,52.75
2023-02-12T07:31:36.478Z,74.90
2023-02-12T07:35:40.647Z,79.57
2023-02-12T07:43:50.149Z,57.92
2023-02-12T07:47:55.084Z,66.60
2023-02-12T07:51:58.723Z,63.63
2023-02-12T07:56:16.476Z,68.60
2023-02-12T08:00:21.131Z,70.63
2023-02-12T08:04:27.336Z,58.78
2023-02-12T08:08:30.889Z,58.65
2023-02-12T08:12:34.548Z,64.50
2023-02-12T08:16:45.508Z,63.75
2023-02-12T08:20:50.778Z,50.72
2023-02-12T08:24:54.843Z,58.35
2023-02-12T08:33:06.076Z,47.53
2023-02-12T08:37:11.766Z,46.13
2023-02-12T08:41:21.626Z,49.40
2023-02-12T08:45:27.905Z,51.95
2023-02-12T08:49:32.270Z,47.42
2023-02-12T08:53:38.366Z,51.75
2023-02-12T08:57:44.249Z,50.13
2023-02-12T09:01:51.470Z,50.83
2023-02-12T09:06:02.857Z,48.65
2023-02-12T09:10:09.088Z,50.40
2023-02-12T09:14:30.023Z,47.53
2023-02-12T09:18:37.430Z,44.33
2023-02-12T09:22:41.330Z,40.33
2023-02-12T09:26:46.206Z,45.05
2023-02-12T09:30:50.162Z,41.03
2023-02-12T09:39:09.803Z,40.95
2023-02-12T09:43:25.927Z,40.72
2023-02-12T09:47:36.056Z,39.05
2023-02-12T09:55:48.535Z,41.83
2023-02-12T09:59:58.009Z,34.47
2023-02-12T10:04:02.723Z,34.50
2023-02-12T10:08:32.627Z,39.80
2023-02-12T10:12:42.714Z,34.03
2023-02-12T10:16:54.854Z,29.75
2023-02-12T10:21:09.759Z,25.30
2023-02-12T10:25:23.701Z,24.52
2023-02-12T10:29:34.015Z,26.83
2023-02-12T10:33:49.870Z,27.25
2023-02-12T10:38:02.169Z,28.52
2023-02-12T10:42:17.582Z,28.27
2023-02-12T10:46:27.763Z,25.73
2023-02-12T10:50:54.802Z,26.77
2023-02-12T10:55:00.729Z,22.58
2023-02-12T10:59:07.145Z,27.65
2023-02-12T11:03:23.719Z,21.45
2023-02-12T11:07:50.211Z,20.90
2023-02-12T11:11:56.498Z,22.27
2023-02-12T11:16:02.617Z,20.85
2023-02-12T11:20:26.375Z,20.70
2023-02-12T11:24:37.792Z,20.08
2023-02-12T11:28:55.154Z,26.13
2023-02-12T11:33:18.843Z,26.33
2023-02-12T11:37:25.476Z,22.23
2023-02-12T11:41:36.560Z,22.70
2023-02-12T11:45:50.498Z,23.10
2023-02-12T11:49:59.563Z,22.50
2023-02-12T11:54:07.194Z,19.23
2023-02-12T11:58:19.980Z,21.63
2023-02-12T12:02:27.872Z,19.88
2023-02-12T12:06:39.130Z,21.42
2023-02-12T12:10:46.572Z,20.77
2023-02-12T12:15:23.191Z,19.10
2023-02-12T12:19:50.835Z,16.00
2023-02-12T12:24:00.104Z,17.70
2023-02-12T12:28:11.286Z,19.00
2023-02-12T12:32:22.006Z,19.55
2023-02-12T12:37:06.812Z,18.98
2023-02-12T12:41:20.383Z,16.35
2023-02-12T12:45:41.300Z,17.60
2023-02-12T12:50:01.946Z,18.65
2023-02-12T12:54:22.753Z,20.15
2023-02-12T12:58:38.049Z,20.00
2023-02-12T13:03:10.857Z,19.85
2023-02-12T13:07:24.519Z,19.55
2023-02-12T13:11:38.024Z,19.40
2023-02-12T13:15:47.117Z,19.83
2023-02-12T13:20:02.515Z,17.85
2023-02-12T13:24:21.997Z,14.63
2023-02-12T13:28:49.591Z,16.77
2023-02-12T13:33:05.240Z,16.10
2023-02-12T13:37:17.036Z,16.70
2023-02-12T13:41:23.348Z,15.20
2023-02-12T13:45:39.970Z,18.42
2023-02-12T13:49:49.844Z,21.23
2023-02-12T13:54:03.867Z,17.08
2023-02-12T13:58:45.731Z,17.60
2023-02-12T14:02:54.750Z,18.63
2023-02-12T14:07:03.895Z,18.67
2023-02-12T14:11:12.471Z,17.00
2023-02-12T14:15:42.382Z,14.75
2023-02-12T14:19:59.335Z,15.30
2023-02-12T14:24:53.597Z,15.43
2023-02-12T14:29:01.041Z,15.95
2023-02-12T14:33:30.600Z,16.55
2023-02-12T14:37:43.443Z,18.35
2023-02-12T14:41:58.496Z,17.15
2023-02-12T14:46:38.725Z,15.85
2023-02-12T14:50:50.684Z,18.73
2023-02-12T14:54:58.022Z,15.07
2023-02-12T14:59:07.870Z,15.02
2023-02-12T15:03:25.877Z,16.90
2023-02-12T15:07:33.778Z,14.05
2023-02-12T15:11:46.935Z,14.25
2023-02-12T15:15:54.792Z,17.67
2023-02-12T15:20:03.078Z,17.92
2023-02-12T15:24:08.256Z,15.57
2023-02-12T15:28:21.353Z,16.23
2023-02-12T15:32:26.993Z,12.40
2023-02-12T15:36:34.012Z,14.57
2023-02-12T15:40:37.431Z,16.67
2023-02-12T15:44:42.692Z,14.07
2023-02-12T15:48:50.837Z,15.80
2023-02-12T15:52:58.380Z,13.60
2023-02-12T15:57:05.832Z,14.88
2023-02-12T16:01:21.183Z,15.85
2023-02-12T16:05:25.691Z,15.10
2023-02-12T16:09:32.667Z,15.73
2023-02-12T16:13:37.707Z,19.73
2023-02-12T16:17:48.369Z,14.05
2023-02-12T16:21:54.337Z,14.88
2023-02-12T16:26:01.933Z,15.50
2023-02-12T16:30:08.781Z,14.68
2023-02-12T16:34:32.944Z,14.05
2023-02-12T16:38:46.812Z,14.32
2023-02-12T16:43:08.014Z,17.02
2023-02-12T16:47:27.287Z,17.05
2023-02-12T16:51:34.106Z,13.95
2023-02-12T16:55:38.457Z,16.35
2023-02-12T16:59:48.228Z,13.05
2023-02-12T17:04:04.397Z,17.73
2023-02-12T17:08:12.830Z,17.02
2023-02-12T17:12:19.104Z,11.63
2023-02-12T17:16:32.247Z,14.60
2023-02-12T17:20:44.651Z,14.38
2023-02-12T17:24:54.858Z,11.85
2023-02-12T17:29:05.740Z,11.73
2023-02-12T17:33:10.079Z,16.42
2023-02-12T17:37:26.971Z,17.25
2023-02-12T17:42:00.850Z,15.98
2023-02-12T17:46:10.788Z,16.20
2023-02-12T17:50:16.514Z,15.02
2023-02-12T17:59:03.848Z,13.15
2023-02-12T18:03:17.028Z,12.70
2023-02-12T18:07:25.545Z,15.82
2023-02-12T18:11:33.401Z,23.58
2023-02-12T18:15:48.412Z,18.88
2023-02-12T18:19:55.985Z,22.58
2023-02-12T18:24:00.471Z,18.70
2023-02-12T18:32:16.656Z,19.15
2023-02-12T18:36:32.511Z,45.50
2023-02-12T18:40:36.153Z,21.17
2023-02-12T18:44:52.780Z,20.25
2023-02-12T18:49:01.742Z,20.25
2023-02-12T18:53:06.383Z,40.63
2023-02-12T18:57:13.886Z,20.63
2023-02-12T19:01:18.908Z,23.75
2023-02-12T19:10:09.249Z,26.80
2023-02-12T19:14:20.111Z,28.95
2023-02-12T19:18:30.668Z,36.97
2023-02-12T19:22:37.018Z,30.33
2023-02-12T19:26:44.768Z,26.17
2023-02-12T19:30:49.045Z,21.83
2023-02-12T19:34:52.856Z,21.55
2023-02-12T19:38:58.870Z,16.60
2023-02-12T19:43:02.994Z,18.17
2023-02-12T19:47:06.858Z,21.35
2023-02-12T19:51:20.763Z,33.80
2023-02-12T19:55:26.116Z,20.48
2023-02-12T19:59:34.310Z,25.98
2023-02-12T20:03:52.629Z,21.33
2023-02-12T20:07:56.227Z,25.85
2023-02-12T20:12:16.667Z,18.15
2023-02-12T20:16:22.980Z,37.70
2023-02-12T20:20:26.870Z,25.33
2023-02-12T20:24:41.095Z,26.17
2023-02-12T20:28:57.509Z,28.05
2023-02-12T20:33:14.294Z,30.42
2023-02-12T20:37:18.808Z,43.85
2023-02-12T20:41:41.350Z,22.40
2023-02-12T20:46:30.686Z,27.42
2023-02-12T20:50:45.237Z,26.00
2023-02-12T20:55:05.548Z,39.63
2023-02-12T20:59:17.404Z,89.43
2023-02-12T21:03:28.766Z,34.10
2023-02-12T21:07:35.105Z,36.20
2023-02-12T21:16:26.183Z,77.05
2023-02-12T21:20:41.865Z,31.65
2023-02-12T21:24:48.765Z,104.45
2023-02-12T21:29:05.010Z,39.30
2023-02-12T21:33:09.374Z,66.05
2023-02-12T21:37:20.562Z,46.85
2023-02-12T21:41:28.684Z,93.88
2023-02-12T21:45:41.275Z,84.35
2023-02-12T21:49:45.617Z,43.03
2023-02-12T21:54:05.260Z,54.35
2023-02-12T21:58:39.182Z,137.38
2023-02-12T22:02:55.190Z,50.08
2023-02-12T22:07:08.631Z,58.10
2023-02-12T22:11:26.796Z,198.68
2023-02-12T22:15:49.650Z,55.45
2023-02-12T22:20:22.450Z,46.72
2023-02-12T22:24:55.910Z,49.60
2023-02-12T22:29:18.045Z,87.95
2023-02-12T22:33:25.470Z,45.35
2023-02-12T22:37:36.306Z,42.45
2023-02-12T22:42:13.775Z,140.65
2023-02-12T22:46:26.755Z,46.55
2023-02-12T22:50:31.952Z,90.97
2023-02-12T22:54:44.360Z,41.58
2023-02-12T22:58:52.242Z,46.88
2023-02-12T23:03:00.269Z,46.28
2023-02-12T23:07:06.990Z,51.97
2023-02-12T23:11:12.116Z,39.78
2023-02-12T23:15:16.011Z,50.00
2023-02-12T23:19:25.093Z,44.67
2023-02-12T23:23:29.600Z,50.35
2023-02-12T23:27:35.604Z,51.08
2023-02-12T23:31:41.939Z,42.45
2023-02-12T23:35:51.904Z,99.97
2023-02-12T23:39:56.368Z,41.45
2023-02-12T23:44:02.107Z,47.53
2023-02-12T23:48:11.698Z,49.22
2023-02-12T23:52:22.528Z,43.63
2023-02-12T23:56:33.711Z,58.40
